createdAt,value
2017-11-13T00:00:35.075Z,2.47
2017-11-13T00:03:02.893Z,2.40
2017-11-13T00:05:32.533Z,2.70
2017-11-13T00:08:01.616Z,3.80
2017-11-13T00:10:29.511Z,2.60
2017-11-13T00:12:57.283Z,2.40
2017-11-13T00:15:25.134Z,2.70
2017-11-13T00:17:53.084Z,2.33
2017-11-13T00:20:20.913Z,2.90
2017-11-13T00:22:48.712Z,2.10
2017-11-13T00:25:16.505Z,2.17
2017-11-13T00:27:44.472Z,1.97
2017-11-13T00:30:12.329Z,2.00
2017-11-13T00:32:40.231Z,2.90
2017-11-13T00:35:08.860Z,2.20
2017-11-13T00:37:36.805Z,1.90
2017-11-13T00:40:05.535Z,2.10
2017-11-13T00:42:33.484Z,2.70
2017-11-13T00:45:01.564Z,2.30
2017-11-13T00:47:29.333Z,2.50
2017-11-13T00:49:57.502Z,2.00
2017-11-13T00:52:25.385Z,2.47
2017-11-13T00:54:53.185Z,2.23
2017-11-13T00:57:21.013Z,2.10
2017-11-13T00:59:48.895Z,2.07
2017-11-13T01:02:17.544Z,1.97
2017-11-13T01:04:45.434Z,4.80
2017-11-13T01:07:13.291Z,2.50
2017-11-13T01:09:41.382Z,2.57
2017-11-13T01:12:09.949Z,2.10
2017-11-13T01:14:38.026Z,2.80
2017-11-13T01:17:06.088Z,7.70
2017-11-13T01:19:33.977Z,2.60
2017-11-13T01:22:02.644Z,3.30
2017-11-13T01:24:30.391Z,2.40
2017-11-13T01:26:58.261Z,2.60
2017-11-13T01:29:26.033Z,2.90
2017-11-13T01:31:54.100Z,2.60
2017-11-13T01:34:21.868Z,2.60
2017-11-13T01:36:49.756Z,3.03
2017-11-13T01:39:18.366Z,3.47
2017-11-13T01:41:46.270Z,2.80
2017-11-13T01:44:15.097Z,3.40
2017-11-13T01:46:43.657Z,3.93
2017-11-13T01:49:11.510Z,3.27
2017-11-13T01:51:39.494Z,4.10
2017-11-13T01:54:07.299Z,3.83
2017-11-13T01:56:36.362Z,4.27
2017-11-13T01:59:04.406Z,3.70
2017-11-13T02:01:32.238Z,3.60
2017-11-13T02:04:00.152Z,4.53
2017-11-13T02:06:29.357Z,4.40
2017-11-13T02:08:57.197Z,4.40
2017-11-13T02:11:25.029Z,4.97
2017-11-13T02:13:52.935Z,6.00
2017-11-13T02:16:20.861Z,6.20
2017-11-13T02:18:48.907Z,5.30
2017-11-13T02:21:16.740Z,5.70
2017-11-13T02:23:45.016Z,5.10
2017-11-13T02:26:13.189Z,5.77
2017-11-13T02:28:41.081Z,6.27
2017-11-13T02:31:09.838Z,5.80
2017-11-13T02:33:37.672Z,6.90
2017-11-13T02:36:05.507Z,5.83
2017-11-13T02:38:34.487Z,5.77
2017-11-13T02:41:02.442Z,4.77
2017-11-13T02:43:30.360Z,5.90
2017-11-13T02:45:58.386Z,5.13
2017-11-13T02:48:26.338Z,5.23
2017-11-13T02:50:54.217Z,6.10
2017-11-13T02:53:22.483Z,6.67
2017-11-13T02:55:50.552Z,6.43
2017-11-13T02:58:19.138Z,7.67
2017-11-13T03:00:47.010Z,8.20
2017-11-13T03:03:14.759Z,7.33
2017-11-13T03:05:42.632Z,7.77
2017-11-13T03:08:10.620Z,7.23
2017-11-13T03:10:38.792Z,6.80
2017-11-13T03:13:06.667Z,7.30
2017-11-13T03:15:34.527Z,7.70
2017-11-13T03:18:02.406Z,7.40
2017-11-13T03:20:30.341Z,6.80
2017-11-13T03:22:58.313Z,7.73
2017-11-13T03:25:26.088Z,8.00
2017-11-13T03:27:54.149Z,7.60
2017-11-13T03:30:21.954Z,7.50
2017-11-13T03:32:50.596Z,7.23
2017-11-13T03:35:18.463Z,6.87
2017-11-13T03:37:46.532Z,7.80
2017-11-13T03:40:14.315Z,7.23
2017-11-13T03:42:42.173Z,6.23
2017-11-13T03:45:10.043Z,7.00
2017-11-13T03:47:38.109Z,7.00
2017-11-13T03:50:05.900Z,7.07
2017-11-13T03:52:33.695Z,8.37
2017-11-13T03:55:01.518Z,7.60
2017-11-13T03:57:29.377Z,8.40
2017-11-13T03:59:57.435Z,9.00
2017-11-13T04:02:25.461Z,9.00
2017-11-13T04:04:53.287Z,8.33
2017-11-13T04:07:21.172Z,8.83
2017-11-13T04:09:50.252Z,8.60
2017-11-13T04:12:18.109Z,6.67
2017-11-13T04:14:46.067Z,6.97
2017-11-13T04:17:14.155Z,8.00
2017-11-13T04:19:43.036Z,7.80
2017-11-13T04:22:11.727Z,6.80
2017-11-13T04:24:39.592Z,7.60
2017-11-13T04:27:08.081Z,7.30
2017-11-13T04:29:35.845Z,7.30
2017-11-13T04:32:03.791Z,7.87
2017-11-13T04:34:31.770Z,6.70
2017-11-13T04:36:59.727Z,7.93
2017-11-13T04:39:27.511Z,7.10
2017-11-13T04:41:55.563Z,4.10
2017-11-13T04:44:23.339Z,3.20
2017-11-13T04:46:51.210Z,3.13
2017-11-13T04:49:18.968Z,2.83
2017-11-13T04:51:46.733Z,2.47
2017-11-13T04:54:14.505Z,4.53
2017-11-13T04:56:42.307Z,5.17
2017-11-13T04:59:10.059Z,5.83
2017-11-13T05:01:38.723Z,6.37
2017-11-13T05:04:06.582Z,6.60
2017-11-13T05:06:34.537Z,7.23
2017-11-13T05:09:02.411Z,6.60
2017-11-13T05:11:30.531Z,7.20
2017-11-13T05:13:58.456Z,7.60
2017-11-13T05:16:26.533Z,7.63
2017-11-13T05:18:55.054Z,6.90
2017-11-13T05:21:22.880Z,7.57
2017-11-13T05:23:50.636Z,7.53
2017-11-13T05:26:18.589Z,6.60
2017-11-13T05:28:46.781Z,6.97
2017-11-13T05:31:14.557Z,8.00
2017-11-13T05:33:43.075Z,7.50
2017-11-13T05:36:10.910Z,7.37
2017-11-13T05:38:38.758Z,6.97
2017-11-13T05:41:06.577Z,7.90
2017-11-13T05:43:34.331Z,8.10
2017-11-13T05:46:02.234Z,7.47
2017-11-13T05:48:30.033Z,6.97
2017-11-13T05:50:57.890Z,13.03
2017-11-13T05:53:25.757Z,7.20
2017-11-13T05:55:53.515Z,7.57
2017-11-13T05:58:21.365Z,7.47
2017-11-13T06:00:49.435Z,9.03
2017-11-13T06:03:17.348Z,12.40
2017-11-13T06:05:46.234Z,8.47
2017-11-13T06:08:14.917Z,8.60
2017-11-13T06:10:43.867Z,8.13
2017-11-13T06:13:11.753Z,7.13
2017-11-13T06:15:39.907Z,8.07
2017-11-13T06:18:08.001Z,7.80
2017-11-13T06:20:35.780Z,7.73
2017-11-13T06:23:03.732Z,9.30
2017-11-13T06:25:31.809Z,7.37
2017-11-13T06:27:59.664Z,8.57
2017-11-13T06:30:27.631Z,7.73
2017-11-13T06:32:55.585Z,7.90
2017-11-13T06:35:23.374Z,8.30
2017-11-13T06:37:51.247Z,8.57
2017-11-13T06:40:19.106Z,9.17
2017-11-13T06:42:46.979Z,8.00
2017-11-13T06:45:14.919Z,7.37
2017-11-13T06:47:42.815Z,8.07
2017-11-13T06:50:10.773Z,8.43
2017-11-13T06:52:38.553Z,8.57
2017-11-13T06:55:06.385Z,8.70
2017-11-13T06:57:34.286Z,7.77
2017-11-13T07:00:02.342Z,10.40
2017-11-13T07:02:30.305Z,9.33
2017-11-13T07:04:58.258Z,9.13
2017-11-13T07:07:27.062Z,7.83
2017-11-13T07:09:54.834Z,8.90
2017-11-13T07:12:22.702Z,6.70
2017-11-13T07:14:50.581Z,8.07
2017-11-13T07:17:19.143Z,6.87
2017-11-13T07:19:47.096Z,6.90
2017-11-13T07:22:15.167Z,6.90
2017-11-13T07:24:42.929Z,7.73
2017-11-13T07:27:10.806Z,6.17
2017-11-13T07:29:38.763Z,7.20
2017-11-13T07:32:06.632Z,6.80
2017-11-13T07:34:34.702Z,7.33
2017-11-13T07:37:02.588Z,6.73
2017-11-13T07:39:30.457Z,7.57
2017-11-13T07:41:58.403Z,7.20
2017-11-13T07:44:26.301Z,7.10
2017-11-13T07:46:54.979Z,7.33
2017-11-13T07:49:22.822Z,8.60
2017-11-13T07:51:50.923Z,7.53
2017-11-13T07:54:18.900Z,6.90
2017-11-13T07:56:46.745Z,7.27
2017-11-13T07:59:14.509Z,6.87
2017-11-13T08:01:42.518Z,6.07
2017-11-13T08:04:11.168Z,5.23
2017-11-13T08:06:39.868Z,7.00
2017-11-13T08:09:08.517Z,5.47
2017-11-13T08:11:38.482Z,5.10
2017-11-13T08:14:07.322Z,6.20
2017-11-13T08:16:35.201Z,5.83
2017-11-13T08:19:03.174Z,7.77
2017-11-13T08:21:31.019Z,7.27
2017-11-13T08:23:58.818Z,7.67
2017-11-13T08:26:26.604Z,8.33
2017-11-13T08:28:55.452Z,7.30
2017-11-13T08:31:23.424Z,7.80
2017-11-13T08:33:51.303Z,7.60
2017-11-13T08:36:19.169Z,7.90
2017-11-13T08:38:55.585Z,8.23
2017-11-13T08:41:23.504Z,10.10
2017-11-13T08:43:51.378Z,9.70
2017-11-13T08:46:19.131Z,11.63
2017-11-13T08:48:48.457Z,9.77
2017-11-13T08:51:17.015Z,8.47
2017-11-13T08:53:44.874Z,7.97
2017-11-13T08:56:13.015Z,7.70
2017-11-13T08:58:40.814Z,8.17
2017-11-13T09:01:08.678Z,6.80
2017-11-13T09:03:36.626Z,8.50
2017-11-13T09:06:04.510Z,7.03
2017-11-13T09:08:32.382Z,10.03
2017-11-13T09:11:00.238Z,8.20
2017-11-13T09:13:28.702Z,9.20
2017-11-13T09:15:56.523Z,8.50
2017-11-13T09:18:25.170Z,7.30
2017-11-13T09:20:53.027Z,9.07
2017-11-13T09:23:20.897Z,8.60
2017-11-13T09:25:48.757Z,9.60
2017-11-13T09:28:16.545Z,10.13
2017-11-13T09:30:44.409Z,9.07
2017-11-13T09:33:12.292Z,8.43
2017-11-13T09:35:40.904Z,7.77
2017-11-13T09:38:08.812Z,7.53
2017-11-13T09:40:37.729Z,7.97
2017-11-13T09:43:07.629Z,7.80
2017-11-13T09:45:35.502Z,9.33
2017-11-13T09:48:03.357Z,8.80
2017-11-13T09:50:31.137Z,10.23
2017-11-13T09:52:59.072Z,10.00
2017-11-13T09:55:26.852Z,8.70
2017-11-13T09:57:54.724Z,12.40
2017-11-13T10:00:22.703Z,10.80
2017-11-13T10:02:50.639Z,9.90
2017-11-13T10:05:18.452Z,10.70
2017-11-13T10:07:47.032Z,13.23
2017-11-13T10:10:15.625Z,9.77
2017-11-13T10:12:44.288Z,10.97
2017-11-13T10:15:12.947Z,10.30
2017-11-13T10:17:40.993Z,11.67
2017-11-13T10:20:09.223Z,11.60
2017-11-13T10:22:37.181Z,9.63
2017-11-13T10:25:05.051Z,10.37
2017-11-13T10:27:32.931Z,9.67
2017-11-13T10:30:01.688Z,10.17
2017-11-13T10:32:29.751Z,9.70
2017-11-13T10:34:57.725Z,11.77
2017-11-13T10:37:25.691Z,9.50
2017-11-13T10:39:53.469Z,10.63
2017-11-13T10:42:21.339Z,10.40
2017-11-13T10:44:49.293Z,10.80
2017-11-13T10:47:17.079Z,10.07
2017-11-13T10:49:46.073Z,9.40
2017-11-13T10:52:14.008Z,9.07
2017-11-13T10:54:43.183Z,11.53
2017-11-13T10:57:11.181Z,8.97
2017-11-13T10:59:39.012Z,9.67
2017-11-13T11:02:07.040Z,8.50
2017-11-13T11:04:34.980Z,8.70
2017-11-13T11:07:02.976Z,8.93
2017-11-13T11:09:31.593Z,9.00
2017-11-13T11:11:59.542Z,7.80
2017-11-13T11:14:31.876Z,7.20
2017-11-13T11:17:03.325Z,9.10
2017-11-13T11:19:46.061Z,9.30
2017-11-13T11:22:16.882Z,8.83
2017-11-13T11:24:44.980Z,10.10
2017-11-13T11:27:14.864Z,8.37
2017-11-13T11:29:46.242Z,8.80
2017-11-13T11:32:14.274Z,8.30
2017-11-13T11:34:58.666Z,8.30
2017-11-13T11:37:26.704Z,6.40
2017-11-13T11:39:54.617Z,5.40
2017-11-13T11:42:23.263Z,7.07
2017-11-13T11:45:01.367Z,6.17
2017-11-13T11:47:31.203Z,5.50
2017-11-13T11:49:59.257Z,6.17
2017-11-13T11:52:27.144Z,5.70
2017-11-13T11:55:12.798Z,6.40
2017-11-13T11:57:40.972Z,4.80
2017-11-13T12:00:09.020Z,5.10
2017-11-13T12:02:37.191Z,4.80
2017-11-13T12:05:05.042Z,4.37
2017-11-13T12:07:32.967Z,5.50
2017-11-13T12:10:01.559Z,4.50
2017-11-13T12:12:30.318Z,7.10
2017-11-13T12:14:58.100Z,9.47
2017-11-13T12:17:25.893Z,4.10
2017-11-13T12:19:54.700Z,4.63
2017-11-13T12:22:22.603Z,3.77
2017-11-13T12:24:50.384Z,4.43
2017-11-13T12:27:18.364Z,3.80
2017-11-13T12:29:46.309Z,5.63
2017-11-13T12:32:14.054Z,3.93
2017-11-13T12:34:41.932Z,3.90
2017-11-13T12:37:09.904Z,4.40
2017-11-13T12:39:37.766Z,4.00
2017-11-13T12:42:05.550Z,4.67
2017-11-13T12:44:33.523Z,5.03
2017-11-13T12:47:01.289Z,5.13
2017-11-13T12:49:29.066Z,4.30
2017-11-13T12:51:56.871Z,4.20
2017-11-13T12:54:24.697Z,5.00
2017-11-13T12:56:52.541Z,5.50
2017-11-13T12:59:20.574Z,5.10
2017-11-13T13:01:48.442Z,5.70
2017-11-13T13:04:16.536Z,5.63
2017-11-13T13:06:44.427Z,6.70
2017-11-13T13:09:12.600Z,7.83
2017-11-13T13:11:40.770Z,7.50
2017-11-13T13:14:08.632Z,6.40
2017-11-13T13:16:36.597Z,6.43
2017-11-13T13:19:04.756Z,6.13
2017-11-13T13:21:33.571Z,9.77
2017-11-13T13:24:01.645Z,7.90
2017-11-13T13:26:29.525Z,4.73
2017-11-13T13:28:58.140Z,6.13
2017-11-13T13:31:26.446Z,8.33
2017-11-13T13:33:54.238Z,5.30
2017-11-13T13:36:22.297Z,4.50
2017-11-13T13:38:50.581Z,4.57
2017-11-13T13:41:18.450Z,4.23
2017-11-13T13:43:46.392Z,3.43
2017-11-13T13:46:14.364Z,6.70
2017-11-13T13:48:42.232Z,4.00
2017-11-13T13:51:10.785Z,7.83
2017-11-13T13:53:38.700Z,6.37
2017-11-13T13:56:06.574Z,8.17
2017-11-13T13:58:35.227Z,4.80
2017-11-13T14:01:03.092Z,5.50
2017-11-13T14:03:31.173Z,4.23
2017-11-13T14:05:59.151Z,3.87
2017-11-13T14:08:27.308Z,6.17
2017-11-13T14:10:55.153Z,4.13
2017-11-13T14:13:23.886Z,4.17
2017-11-13T14:15:52.466Z,6.00
2017-11-13T14:18:21.441Z,3.40
2017-11-13T14:20:49.607Z,4.50
2017-11-13T14:23:17.490Z,15.93
2017-11-13T14:25:45.370Z,6.80
2017-11-13T14:28:14.593Z,4.97
2017-11-13T14:30:43.418Z,5.20
2017-11-13T14:33:12.113Z,5.23
2017-11-13T14:35:40.003Z,5.50
2017-11-13T14:38:07.971Z,4.30
2017-11-13T14:40:35.735Z,4.10
2017-11-13T14:43:03.787Z,4.87
2017-11-13T14:45:32.061Z,5.20
2017-11-13T14:47:59.933Z,5.63
2017-11-13T14:50:27.902Z,13.00
2017-11-13T14:52:56.074Z,5.03
2017-11-13T14:55:23.861Z,4.50
2017-11-13T14:57:51.753Z,5.80
2017-11-13T15:00:20.459Z,4.90
2017-11-13T15:02:48.461Z,5.50
2017-11-13T15:05:16.453Z,7.00
2017-11-13T15:07:44.539Z,5.30
2017-11-13T15:10:13.287Z,6.00
2017-11-13T15:12:41.280Z,5.73
2017-11-13T15:15:09.944Z,5.90
2017-11-13T15:17:37.808Z,5.37
2017-11-13T15:20:05.718Z,8.87
2017-11-13T15:22:34.680Z,7.67
2017-11-13T15:25:03.270Z,7.90
2017-11-13T15:27:32.587Z,7.43
2017-11-13T15:30:01.219Z,7.37
2017-11-13T15:32:29.154Z,7.50
2017-11-13T15:34:56.904Z,7.40
2017-11-13T15:37:26.096Z,6.40
2017-11-13T15:39:53.977Z,6.27
2017-11-13T15:42:22.547Z,6.80
2017-11-13T15:44:50.581Z,22.40
2017-11-13T15:47:18.448Z,23.87
2017-11-13T15:49:46.415Z,20.13
2017-11-13T15:52:14.304Z,18.63
2017-11-13T15:54:42.171Z,15.30
2017-11-13T15:57:10.058Z,13.80
2017-11-13T15:59:38.739Z,10.20
2017-11-13T16:02:07.513Z,9.53
2017-11-13T16:04:35.291Z,9.33
2017-11-13T16:07:04.959Z,10.27
2017-11-13T16:09:33.259Z,6.27
2017-11-13T16:12:02.560Z,9.07
2017-11-13T16:14:30.425Z,9.57
2017-11-13T16:16:58.272Z,6.93
2017-11-13T16:19:26.872Z,9.50
2017-11-13T16:21:54.744Z,8.77
2017-11-13T16:24:22.687Z,7.03
2017-11-13T16:26:50.588Z,8.33
2017-11-13T16:29:18.540Z,8.30
2017-11-13T16:31:46.508Z,8.20
2017-11-13T16:34:14.373Z,7.90
2017-11-13T16:36:42.327Z,6.60
2017-11-13T16:39:10.219Z,10.03
2017-11-13T16:41:39.084Z,16.17
2017-11-13T16:44:06.819Z,22.30
2017-11-13T16:46:34.599Z,17.57
2017-11-13T16:49:02.399Z,20.60
2017-11-13T16:51:30.447Z,38.97
2017-11-13T16:53:58.324Z,13.27
2017-11-13T16:56:26.195Z,10.60
2017-11-13T16:58:54.100Z,10.57
2017-11-13T17:01:22.642Z,9.37
2017-11-13T17:03:50.516Z,9.70
2017-11-13T17:06:18.586Z,13.00
2017-11-13T17:08:49.392Z,11.60
2017-11-13T17:11:21.152Z,30.50
2017-11-13T17:13:49.755Z,15.47
2017-11-13T17:16:17.591Z,12.00
2017-11-13T17:18:45.603Z,12.40
2017-11-13T17:21:13.463Z,60.43
2017-11-13T17:23:41.358Z,85.33
2017-11-13T17:26:09.930Z,24.67
2017-11-13T17:28:38.616Z,66.30
2017-11-13T17:31:07.569Z,64.40
2017-11-13T17:33:36.799Z,108.73
2017-11-13T17:36:04.639Z,39.90
2017-11-13T17:38:32.646Z,11.20
2017-11-13T17:41:01.163Z,10.43
2017-11-13T17:43:29.362Z,13.80
2017-11-13T17:45:57.190Z,11.83
2017-11-13T17:48:25.118Z,11.77
2017-11-13T17:50:52.989Z,19.20
2017-11-13T17:53:20.936Z,18.87
2017-11-13T17:55:48.825Z,16.80
2017-11-13T17:58:16.765Z,19.60
2017-11-13T18:00:44.652Z,15.50
2017-11-13T18:03:12.448Z,14.27
2017-11-13T18:05:41.285Z,14.03
2017-11-13T18:08:09.131Z,12.90
2017-11-13T18:10:36.931Z,15.17
2017-11-13T18:13:04.793Z,13.73
2017-11-13T18:15:32.670Z,15.50
2017-11-13T18:18:00.641Z,13.97
2017-11-13T18:20:28.615Z,11.10
2017-11-13T18:22:56.504Z,8.37
2017-11-13T18:25:25.154Z,9.00
2017-11-13T18:27:53.014Z,9.97
2017-11-13T18:30:20.972Z,10.87
2017-11-13T18:32:48.852Z,10.13
2017-11-13T18:35:16.813Z,10.70
2017-11-13T18:37:45.893Z,10.07
2017-11-13T18:40:13.884Z,10.63
2017-11-13T18:42:41.769Z,10.40
2017-11-13T18:45:10.036Z,10.10
2017-11-13T18:47:37.980Z,11.13
2017-11-13T18:50:05.979Z,11.70
2017-11-13T18:52:33.849Z,12.47
2017-11-13T18:55:03.453Z,12.30
2017-11-13T18:57:31.324Z,12.27
2017-11-13T19:00:00.131Z,11.20
2017-11-13T19:02:28.679Z,13.20
2017-11-13T19:04:57.676Z,12.30
2017-11-13T19:07:25.615Z,12.33
2017-11-13T19:09:53.694Z,13.40
2017-11-13T19:12:21.601Z,10.80
2017-11-13T19:14:50.360Z,10.93
2017-11-13T19:17:18.181Z,12.23
2017-11-13T19:19:46.186Z,12.77
2017-11-13T19:22:14.151Z,12.33
2017-11-13T19:24:42.018Z,10.40
2017-11-13T19:27:09.914Z,12.27
2017-11-13T19:29:38.318Z,10.60
2017-11-13T19:32:06.975Z,12.90
2017-11-13T19:34:34.926Z,15.43
2017-11-13T19:37:02.942Z,15.37
2017-11-13T19:39:31.881Z,14.90
2017-11-13T19:41:59.855Z,13.80
2017-11-13T19:44:27.953Z,13.37
2017-11-13T19:46:56.330Z,13.73
2017-11-13T19:49:24.286Z,13.13
2017-11-13T19:51:52.200Z,15.03
2017-11-13T19:54:20.334Z,13.80
2017-11-13T19:56:48.232Z,13.00
2017-11-13T19:59:16.184Z,15.27
2017-11-13T20:01:45.064Z,14.80
2017-11-13T20:04:12.918Z,15.10
2017-11-13T20:06:40.892Z,12.90
2017-11-13T20:09:08.843Z,12.53
2017-11-13T20:11:36.745Z,14.23
2017-11-13T20:14:05.522Z,12.03
2017-11-13T20:16:33.563Z,10.90
2017-11-13T20:19:01.578Z,11.07
2017-11-13T20:21:30.429Z,12.23
2017-11-13T20:23:58.353Z,11.07
2017-11-13T20:26:26.529Z,11.10
2017-11-13T20:28:54.460Z,11.33
2017-11-13T20:31:22.606Z,10.07
2017-11-13T20:33:50.503Z,10.20
2017-11-13T20:36:18.466Z,10.20
2017-11-13T20:38:46.619Z,9.53
2017-11-13T20:41:14.842Z,12.00
2017-11-13T20:43:43.656Z,10.70
2017-11-13T20:46:12.197Z,12.13
2017-11-13T20:48:40.973Z,10.90
2017-11-13T20:51:09.554Z,9.90
2017-11-13T20:53:38.414Z,10.27
2017-11-13T20:56:06.394Z,11.27
2017-11-13T20:58:34.370Z,11.27
2017-11-13T21:01:02.261Z,9.43
2017-11-13T21:03:31.007Z,9.20
2017-11-13T21:05:59.083Z,11.10
2017-11-13T21:08:27.043Z,11.17
2017-11-13T21:10:55.264Z,11.83
2017-11-13T21:13:24.037Z,12.30
2017-11-13T21:15:52.023Z,13.73
2017-11-13T21:18:20.927Z,14.60
2017-11-13T21:20:48.836Z,13.70
2017-11-13T21:23:16.931Z,13.57
2017-11-13T21:25:45.022Z,12.90
2017-11-13T21:28:13.994Z,12.90
2017-11-13T21:30:43.710Z,14.37
2017-11-13T21:33:11.856Z,11.30
2017-11-13T21:35:39.849Z,13.87
2017-11-13T21:38:07.798Z,12.60
2017-11-13T21:40:35.948Z,12.00
2017-11-13T21:43:03.857Z,8.97
2017-11-13T21:45:32.018Z,8.43
2017-11-13T21:48:00.109Z,11.37
2017-11-13T21:50:27.975Z,10.97
2017-11-13T21:52:55.915Z,12.20
2017-11-13T21:55:23.783Z,11.60
2017-11-13T21:57:51.848Z,10.77
2017-11-13T22:00:19.830Z,12.53
2017-11-13T22:02:47.671Z,11.10
2017-11-13T22:05:15.462Z,13.00
2017-11-13T22:07:43.294Z,12.30
2017-11-13T22:10:11.217Z,10.97
2017-11-13T22:12:39.252Z,12.90
2017-11-13T22:15:07.322Z,12.70
2017-11-13T22:17:35.218Z,11.33
2017-11-13T22:20:03.276Z,12.50
2017-11-13T22:22:31.162Z,13.33
2017-11-13T22:24:59.961Z,13.47
2017-11-13T22:27:28.010Z,12.80
2017-11-13T22:29:56.052Z,13.10
2017-11-13T22:32:24.057Z,11.80
2017-11-13T22:34:52.735Z,10.83
2017-11-13T22:37:20.682Z,11.10
2017-11-13T22:39:48.581Z,10.70
2017-11-13T22:42:16.456Z,9.47
2017-11-13T22:44:45.153Z,10.17
2017-11-13T22:47:14.910Z,10.00
2017-11-13T22:49:42.906Z,10.67
2017-11-13T22:52:10.852Z,9.77
2017-11-13T22:54:39.019Z,10.00
2017-11-13T22:57:07.020Z,11.87
2017-11-13T22:59:34.878Z,10.53
2017-11-13T23:02:04.363Z,11.37
2017-11-13T23:04:32.329Z,13.70
2017-11-13T23:07:00.128Z,12.63
2017-11-13T23:09:27.989Z,9.47
2017-11-13T23:11:56.574Z,8.90
2017-11-13T23:14:24.432Z,9.50
2017-11-13T23:16:52.481Z,9.77
2017-11-13T23:19:20.366Z,10.53
2017-11-13T23:21:48.173Z,10.50
2017-11-13T23:24:15.997Z,9.47
2017-11-13T23:26:43.969Z,9.50
2017-11-13T23:29:11.717Z,11.47
2017-11-13T23:31:39.675Z,11.67
2017-11-13T23:34:07.698Z,11.30
2017-11-13T23:36:36.431Z,10.73
2017-11-13T23:39:04.298Z,10.67
2017-11-13T23:41:32.082Z,9.90
2017-11-13T23:44:00.030Z,11.03
2017-11-13T23:46:27.917Z,10.30
2017-11-13T23:48:55.784Z,10.50
2017-11-13T23:51:23.727Z,9.10
2017-11-13T23:53:51.538Z,11.00
2017-11-13T23:56:20.286Z,12.30
2017-11-13T23:58:48.128Z,12.00
